createdAt,value
2018-11-23T00:00:48.423Z,926.96
2018-11-23T00:01:48.448Z,927.01
2018-11-23T00:02:48.519Z,927.09
2018-11-23T00:03:48.525Z,927.05
2018-11-23T00:04:48.610Z,927.07
2018-11-23T00:05:48.629Z,927.05
2018-11-23T00:06:48.673Z,927.03
2018-11-23T00:07:48.734Z,927.05
2018-11-23T00:08:48.747Z,927.08
2018-11-23T00:09:48.842Z,927.10
2018-11-23T00:10:48.864Z,927.09
2018-11-23T00:11:48.892Z,927.11
2018-11-23T00:12:48.943Z,927.09
2018-11-23T00:13:48.991Z,927.16
2018-11-23T00:14:49.015Z,927.14
2018-11-23T00:15:49.109Z,927.17
2018-11-23T00:16:49.166Z,927.18
2018-11-23T00:17:49.198Z,927.19
2018-11-23T00:18:49.212Z,927.19
2018-11-23T00:19:49.323Z,927.18
2018-11-23T00:20:49.320Z,927.16
2018-11-23T00:21:49.372Z,927.15
2018-11-23T00:22:49.450Z,927.15
2018-11-23T00:23:49.463Z,927.19
2018-11-23T00:24:49.524Z,927.19
2018-11-23T00:25:49.551Z,927.18
2018-11-23T00:26:49.603Z,927.16
2018-11-23T00:27:49.627Z,927.17
2018-11-23T00:28:49.710Z,927.19
2018-11-23T00:29:49.735Z,927.20
2018-11-23T00:30:49.807Z,927.19
2018-11-23T00:31:49.857Z,927.17
2018-11-23T00:32:49.886Z,927.17
2018-11-23T00:33:49.938Z,927.15
2018-11-23T00:34:49.987Z,927.17
2018-11-23T00:35:50.059Z,927.15
2018-11-23T00:36:50.124Z,927.15
2018-11-23T00:37:50.132Z,927.19
2018-11-23T00:38:50.197Z,927.20
2018-11-23T00:39:50.206Z,927.20
2018-11-23T00:40:50.249Z,927.13
2018-11-23T00:41:50.334Z,927.17
2018-11-23T00:42:50.348Z,927.18
2018-11-23T00:43:50.410Z,927.14
2018-11-23T00:44:50.442Z,927.18
2018-11-23T00:45:50.487Z,927.12
2018-11-23T00:46:50.525Z,927.10
2018-11-23T00:47:50.575Z,927.09
2018-11-23T00:48:50.655Z,927.05
2018-11-23T00:49:50.671Z,926.99
2018-11-23T00:50:50.750Z,927.00
2018-11-23T00:51:50.739Z,926.95
2018-11-23T00:52:50.806Z,926.95
2018-11-23T00:53:50.873Z,926.95
2018-11-23T00:54:50.893Z,926.98
2018-11-23T00:55:50.936Z,927.00
2018-11-23T00:56:50.980Z,927.02
2018-11-23T00:57:51.039Z,927.04
2018-11-23T00:58:51.084Z,927.08
2018-11-23T00:59:51.118Z,927.11
2018-11-23T01:00:51.174Z,927.11
2018-11-23T01:01:51.216Z,927.15
2018-11-23T01:02:51.314Z,927.13
2018-11-23T01:03:51.317Z,927.16
2018-11-23T01:04:51.354Z,927.13
2018-11-23T01:05:51.377Z,927.15
2018-11-23T01:06:51.478Z,927.08
2018-11-23T01:07:51.489Z,927.08
2018-11-23T01:08:51.537Z,927.12
2018-11-23T01:09:51.585Z,927.17
2018-11-23T01:10:51.628Z,927.25
2018-11-23T01:11:51.668Z,927.29
2018-11-23T01:12:51.724Z,927.37
2018-11-23T01:13:51.758Z,927.34
2018-11-23T01:14:51.819Z,927.35
2018-11-23T01:15:51.861Z,927.28
2018-11-23T01:16:51.888Z,927.33
2018-11-23T01:17:51.952Z,927.33
2018-11-23T01:18:52.003Z,927.32
2018-11-23T01:19:52.057Z,927.27
2018-11-23T01:20:52.088Z,927.28
2018-11-23T01:21:52.124Z,927.35
2018-11-23T01:22:52.222Z,927.36
2018-11-23T01:23:52.212Z,927.35
2018-11-23T01:24:52.322Z,927.36
2018-11-23T01:25:52.305Z,927.33
2018-11-23T01:26:52.410Z,927.33
2018-11-23T01:27:52.388Z,927.28
2018-11-23T01:28:52.457Z,927.29
2018-11-23T01:29:52.485Z,927.30
2018-11-23T01:30:52.554Z,927.28
2018-11-23T01:31:52.577Z,927.27
2018-11-23T01:32:52.629Z,927.28
2018-11-23T01:33:52.684Z,927.28
2018-11-23T01:34:52.760Z,927.31
2018-11-23T01:35:52.813Z,927.30
2018-11-23T01:36:52.815Z,927.30
2018-11-23T01:37:52.865Z,927.33
2018-11-23T01:38:52.904Z,927.37
2018-11-23T01:39:52.957Z,927.41
2018-11-23T01:40:52.984Z,927.45
2018-11-23T01:41:53.076Z,927.45
2018-11-23T01:42:53.104Z,927.50
2018-11-23T01:43:53.127Z,927.52
2018-11-23T01:44:53.187Z,927.60
2018-11-23T01:45:53.236Z,927.64
2018-11-23T01:46:53.279Z,927.69
2018-11-23T01:47:53.333Z,927.76
2018-11-23T01:48:53.371Z,927.83
2018-11-23T01:49:53.403Z,927.91
2018-11-23T01:50:53.459Z,927.95
2018-11-23T01:51:53.508Z,927.96
2018-11-23T01:52:53.550Z,928.02
2018-11-23T01:53:53.586Z,928.05
2018-11-23T01:54:53.652Z,928.07
2018-11-23T01:55:53.687Z,928.06
2018-11-23T01:56:53.721Z,928.06
2018-11-23T01:57:53.795Z,928.05
2018-11-23T01:58:53.841Z,928.04
2018-11-23T01:59:53.860Z,928.04
2018-11-23T02:00:53.967Z,928.06
2018-11-23T02:01:54.012Z,928.04
2018-11-23T02:02:54.087Z,928.06
2018-11-23T02:03:54.049Z,928.04
2018-11-23T02:04:54.095Z,928.04
2018-11-23T02:05:54.241Z,928.08
2018-11-23T02:06:54.183Z,928.05
2018-11-23T02:07:54.327Z,927.98
2018-11-23T02:08:54.442Z,927.97
2018-11-23T02:09:54.384Z,927.92
2018-11-23T02:10:54.408Z,927.88
2018-11-23T02:11:54.478Z,927.86
2018-11-23T02:12:54.453Z,927.85
2018-11-23T02:13:54.611Z,927.79
2018-11-23T02:14:54.588Z,927.74
2018-11-23T02:15:54.577Z,927.76
2018-11-23T02:16:54.702Z,927.75
2018-11-23T02:17:54.707Z,927.70
2018-11-23T02:18:54.742Z,927.70
2018-11-23T02:19:54.789Z,927.67
2018-11-23T02:20:54.877Z,927.68
2018-11-23T02:21:54.894Z,927.66
2018-11-23T02:22:54.893Z,927.64
2018-11-23T02:23:55.008Z,927.60
2018-11-23T02:24:55.068Z,927.61
2018-11-23T02:25:55.113Z,927.57
2018-11-23T02:26:55.099Z,927.54
2018-11-23T02:27:55.199Z,927.54
2018-11-23T02:28:55.286Z,927.53
2018-11-23T02:29:55.593Z,927.58
2018-11-23T02:30:55.328Z,927.55
2018-11-23T02:31:55.337Z,927.51
2018-11-23T02:32:55.422Z,927.48
2018-11-23T02:33:55.484Z,927.43
2018-11-23T02:34:55.559Z,927.38
2018-11-23T02:35:55.574Z,927.35
2018-11-23T02:36:55.577Z,927.34
2018-11-23T02:37:55.615Z,927.30
2018-11-23T02:38:55.722Z,927.37
2018-11-23T02:39:55.788Z,927.39
2018-11-23T02:40:55.761Z,927.33
2018-11-23T02:41:55.780Z,927.32
2018-11-23T02:42:55.852Z,927.32
2018-11-23T02:43:55.903Z,927.32
2018-11-23T02:44:55.949Z,927.25
2018-11-23T02:45:55.984Z,927.24
2018-11-23T02:46:56.019Z,927.25
2018-11-23T02:47:56.067Z,927.21
2018-11-23T02:48:56.134Z,927.16
2018-11-23T02:49:56.155Z,927.14
2018-11-23T02:50:56.211Z,927.13
2018-11-23T02:51:56.249Z,927.11
2018-11-23T02:52:56.309Z,927.07
2018-11-23T02:53:56.371Z,927.02
2018-11-23T02:54:56.399Z,927.03
2018-11-23T02:55:56.450Z,927.00
2018-11-23T02:56:56.489Z,926.95
2018-11-23T02:57:56.578Z,926.97
2018-11-23T02:58:56.573Z,926.92
2018-11-23T02:59:56.669Z,926.90
2018-11-23T03:00:56.655Z,926.85
2018-11-23T03:01:56.721Z,926.84
2018-11-23T03:02:56.755Z,926.84
2018-11-23T03:03:56.840Z,926.79
2018-11-23T03:04:56.842Z,926.71
2018-11-23T03:05:56.916Z,926.70
2018-11-23T03:06:56.929Z,926.65
2018-11-23T03:07:56.998Z,926.69
2018-11-23T03:08:57.028Z,926.65
2018-11-23T03:09:57.076Z,926.64
2018-11-23T03:10:57.156Z,926.63
2018-11-23T03:11:57.152Z,926.63
2018-11-23T03:12:57.218Z,926.64
2018-11-23T03:13:57.268Z,926.63
2018-11-23T03:14:57.301Z,926.64
2018-11-23T03:15:57.369Z,926.57
2018-11-23T03:16:57.410Z,926.58
2018-11-23T03:17:57.457Z,926.54
2018-11-23T03:18:57.484Z,926.53
2018-11-23T03:19:57.539Z,926.50
2018-11-23T03:20:57.880Z,926.47
2018-11-23T03:21:57.643Z,926.39
2018-11-23T03:22:57.678Z,926.39
2018-11-23T03:23:57.739Z,926.39
2018-11-23T03:24:57.754Z,926.41
2018-11-23T03:25:57.809Z,926.41
2018-11-23T03:26:57.842Z,926.46
2018-11-23T03:27:57.881Z,926.43
2018-11-23T03:28:57.939Z,926.49
2018-11-23T03:29:57.984Z,926.49
2018-11-23T03:30:58.045Z,926.51
2018-11-23T03:31:58.311Z,926.50
2018-11-23T03:32:58.127Z,926.43
2018-11-23T03:33:58.188Z,926.42
2018-11-23T03:34:58.213Z,926.42
2018-11-23T03:35:58.274Z,926.39
2018-11-23T03:36:58.317Z,926.37
2018-11-23T03:37:58.607Z,926.38
2018-11-23T03:38:58.380Z,926.46
2018-11-23T03:39:58.488Z,926.53
2018-11-23T03:40:58.479Z,926.61
2018-11-23T03:41:58.555Z,926.59
2018-11-23T03:42:58.583Z,926.60
2018-11-23T03:43:58.629Z,926.56
2018-11-23T03:44:58.651Z,926.57
2018-11-23T03:45:58.704Z,926.51
2018-11-23T03:46:58.774Z,926.45
2018-11-23T03:47:58.823Z,926.44
2018-11-23T03:48:59.143Z,926.36
2018-11-23T03:49:58.904Z,926.31
2018-11-23T03:50:58.964Z,926.28
2018-11-23T03:51:59.038Z,926.24
2018-11-23T03:52:59.058Z,926.20
2018-11-23T03:53:59.071Z,926.24
2018-11-23T03:54:59.118Z,926.24
2018-11-23T03:55:59.180Z,926.24
2018-11-23T03:56:59.265Z,926.24
2018-11-23T03:57:59.245Z,926.21
2018-11-23T03:58:59.307Z,926.18
2018-11-23T03:59:59.609Z,926.14
2018-11-23T04:00:59.406Z,926.12
2018-11-23T04:01:59.441Z,926.08
2018-11-23T04:02:59.505Z,926.07
2018-11-23T04:03:59.544Z,926.05
2018-11-23T04:04:59.571Z,926.02
2018-11-23T04:05:59.633Z,925.98
2018-11-23T04:06:59.691Z,925.94
2018-11-23T04:07:59.704Z,925.92
2018-11-23T04:08:59.773Z,925.93
2018-11-23T04:10:00.090Z,925.97
2018-11-23T04:10:59.856Z,925.95
2018-11-23T04:11:59.882Z,925.97
2018-11-23T04:12:59.941Z,926.02
2018-11-23T04:14:00.001Z,926.06
2018-11-23T04:15:00.009Z,926.09
2018-11-23T04:16:00.438Z,926.12
2018-11-23T04:17:00.108Z,926.15
2018-11-23T04:18:00.180Z,926.13
2018-11-23T04:19:00.198Z,926.16
2018-11-23T04:20:00.264Z,926.11
2018-11-23T04:21:00.305Z,926.08
2018-11-23T04:22:00.362Z,925.99
2018-11-23T04:23:00.392Z,925.97
2018-11-23T04:24:00.440Z,925.95
2018-11-23T04:25:00.492Z,925.90
2018-11-23T04:26:00.510Z,925.90
2018-11-23T04:27:00.564Z,925.92
2018-11-23T04:28:00.646Z,925.90
2018-11-23T04:29:00.653Z,925.91
2018-11-23T04:30:00.706Z,925.90
2018-11-23T04:31:00.751Z,925.90
2018-11-23T04:32:00.781Z,925.89
2018-11-23T04:33:00.836Z,925.87
2018-11-23T04:34:00.972Z,925.83
2018-11-23T04:35:00.911Z,925.90
2018-11-23T04:36:01.239Z,925.90
2018-11-23T04:37:01.000Z,925.88
2018-11-23T04:38:01.080Z,925.89
2018-11-23T04:39:01.157Z,925.90
2018-11-23T04:40:01.137Z,925.83
2018-11-23T04:41:01.196Z,925.77
2018-11-23T04:42:01.488Z,925.76
2018-11-23T04:43:01.282Z,925.74
2018-11-23T04:44:01.305Z,925.68
2018-11-23T04:45:01.360Z,925.65
2018-11-23T04:46:01.425Z,925.62
2018-11-23T04:47:01.704Z,925.62
2018-11-23T04:48:01.513Z,925.60
2018-11-23T04:49:01.606Z,925.66
2018-11-23T04:50:01.619Z,925.66
2018-11-23T04:51:01.659Z,925.71
2018-11-23T04:52:01.688Z,925.74
2018-11-23T04:53:01.716Z,925.76
2018-11-23T04:54:01.787Z,925.77
2018-11-23T04:55:01.831Z,925.77
2018-11-23T04:56:01.847Z,925.74
2018-11-23T04:57:01.898Z,925.71
2018-11-23T04:58:01.952Z,925.66
2018-11-23T04:59:01.995Z,925.67
2018-11-23T05:00:02.085Z,925.65
2018-11-23T05:01:02.091Z,925.61
2018-11-23T05:02:02.420Z,925.62
2018-11-23T05:03:02.171Z,925.64
2018-11-23T05:04:02.253Z,925.64
2018-11-23T05:05:02.285Z,925.64
2018-11-23T05:06:02.307Z,925.62
2018-11-23T05:07:02.354Z,925.66
2018-11-23T05:08:02.414Z,925.64
2018-11-23T05:09:02.460Z,925.64
2018-11-23T05:10:02.502Z,925.61
2018-11-23T05:11:02.538Z,925.58
2018-11-23T05:12:02.589Z,925.59
2018-11-23T05:13:02.665Z,925.58
2018-11-23T05:14:02.684Z,925.56
2018-11-23T05:15:02.728Z,925.56
2018-11-23T05:16:02.770Z,925.50
2018-11-23T05:17:03.141Z,925.51
2018-11-23T05:18:02.851Z,925.51
2018-11-23T05:19:02.874Z,925.50
2018-11-23T05:20:02.949Z,925.51
2018-11-23T05:21:02.984Z,925.45
2018-11-23T05:22:03.012Z,925.40
2018-11-23T05:23:03.061Z,925.34
2018-11-23T05:24:03.117Z,925.37
2018-11-23T05:25:03.173Z,925.37
2018-11-23T05:26:03.207Z,925.35
2018-11-23T05:27:03.259Z,925.35
2018-11-23T05:28:03.334Z,925.39
2018-11-23T05:29:03.338Z,925.36
2018-11-23T05:30:03.377Z,925.38
2018-11-23T05:31:03.416Z,925.36
2018-11-23T05:32:03.463Z,925.38
2018-11-23T05:33:03.780Z,925.38
2018-11-23T05:34:03.575Z,925.38
2018-11-23T05:35:03.623Z,925.38
2018-11-23T05:36:03.641Z,925.35
2018-11-23T05:37:03.705Z,925.38
2018-11-23T05:38:03.734Z,925.33
2018-11-23T05:39:03.781Z,925.36
2018-11-23T05:40:03.816Z,925.34
2018-11-23T05:41:03.891Z,925.33
2018-11-23T05:42:03.925Z,925.30
2018-11-23T05:43:04.657Z,925.29
2018-11-23T05:44:04.024Z,925.25
2018-11-23T05:45:04.064Z,925.25
2018-11-23T05:46:04.081Z,925.24
2018-11-23T05:47:04.134Z,925.22
2018-11-23T05:48:04.177Z,925.18
2018-11-23T05:49:04.237Z,925.23
2018-11-23T05:50:04.270Z,925.20
2018-11-23T05:51:04.312Z,925.19
2018-11-23T05:52:04.378Z,925.24
2018-11-23T05:53:04.636Z,925.23
2018-11-23T05:54:04.450Z,925.28
2018-11-23T05:55:04.498Z,925.29
2018-11-23T05:56:04.530Z,925.30
2018-11-23T05:57:04.589Z,925.28
2018-11-23T05:58:04.652Z,925.25
2018-11-23T05:59:04.660Z,925.24
2018-11-23T06:00:04.711Z,925.24
2018-11-23T06:01:04.808Z,925.22
2018-11-23T06:02:04.805Z,925.23
2018-11-23T06:03:04.846Z,925.21
2018-11-23T06:04:04.909Z,925.19
2018-11-23T06:05:04.966Z,925.21
2018-11-23T06:06:05.059Z,925.19
2018-11-23T06:07:05.022Z,925.17
2018-11-23T06:08:05.079Z,925.17
2018-11-23T06:09:05.106Z,925.19
2018-11-23T06:10:05.177Z,925.11
2018-11-23T06:11:05.201Z,925.10
2018-11-23T06:12:05.235Z,925.08
2018-11-23T06:13:05.283Z,925.09
2018-11-23T06:14:05.342Z,925.04
2018-11-23T06:15:05.617Z,925.09
2018-11-23T06:16:05.427Z,925.02
2018-11-23T06:17:05.450Z,925.07
2018-11-23T06:18:05.556Z,925.06
2018-11-23T06:19:05.551Z,925.07
2018-11-23T06:20:05.604Z,925.10
2018-11-23T06:21:05.650Z,925.12
2018-11-23T06:22:05.672Z,925.10
2018-11-23T06:23:05.782Z,925.13
2018-11-23T06:24:05.783Z,925.10
2018-11-23T06:25:05.875Z,925.11
2018-11-23T06:26:05.934Z,925.10
2018-11-23T06:27:05.969Z,925.10
2018-11-23T06:28:05.961Z,925.06
2018-11-23T06:29:06.052Z,925.05
2018-11-23T06:30:06.091Z,925.03
2018-11-23T06:31:06.270Z,925.00
2018-11-23T06:32:06.148Z,925.07
2018-11-23T06:33:06.202Z,925.02
2018-11-23T06:34:06.219Z,925.06
2018-11-23T06:35:06.286Z,925.04
2018-11-23T06:36:06.610Z,925.05
2018-11-23T06:37:06.388Z,925.06
2018-11-23T06:38:06.425Z,925.02
2018-11-23T06:39:06.468Z,925.05
2018-11-23T06:40:06.492Z,925.11
2018-11-23T06:41:10.371Z,925.08
2018-11-23T06:42:06.609Z,925.07
2018-11-23T06:43:06.641Z,925.09
2018-11-23T06:44:06.691Z,925.12
2018-11-23T06:45:06.736Z,925.14
2018-11-23T06:46:07.103Z,925.18
2018-11-23T06:47:06.821Z,925.21
2018-11-23T06:48:06.892Z,925.24
2018-11-23T06:49:06.917Z,925.25
2018-11-23T06:50:06.972Z,925.24
2018-11-23T06:51:06.994Z,925.23
2018-11-23T06:52:07.076Z,925.25
2018-11-23T06:53:07.080Z,925.26
2018-11-23T06:54:07.139Z,925.29
2018-11-23T06:55:07.230Z,925.29
2018-11-23T06:56:07.531Z,925.25
2018-11-23T06:57:07.269Z,925.28
2018-11-23T06:58:07.361Z,925.34
2018-11-23T06:59:07.374Z,925.32
2018-11-23T07:00:07.383Z,925.36
2018-11-23T07:01:07.497Z,925.34
2018-11-23T07:02:07.480Z,925.40
2018-11-23T07:03:07.524Z,925.39
2018-11-23T07:04:07.591Z,925.40
2018-11-23T07:05:07.637Z,925.41
2018-11-23T07:06:07.927Z,925.44
2018-11-23T07:07:07.754Z,925.46
2018-11-23T07:08:07.752Z,925.48
2018-11-23T07:09:07.841Z,925.51
2018-11-23T07:10:07.867Z,925.54
2018-11-23T07:11:07.893Z,925.55
2018-11-23T07:12:07.972Z,925.56
2018-11-23T07:13:07.974Z,925.57
2018-11-23T07:14:08.011Z,925.61
2018-11-23T07:15:08.078Z,925.61
2018-11-23T07:16:08.117Z,925.65
2018-11-23T07:17:08.165Z,925.67
2018-11-23T07:18:08.202Z,925.69
2018-11-23T07:19:08.269Z,925.66
2018-11-23T07:20:08.303Z,925.71
2018-11-23T07:21:08.389Z,925.72
2018-11-23T07:22:08.392Z,925.73
2018-11-23T07:23:08.449Z,925.72
2018-11-23T07:24:08.485Z,925.67
2018-11-23T07:25:08.533Z,925.68
2018-11-23T07:26:08.558Z,925.69
2018-11-23T07:27:08.875Z,925.69
2018-11-23T07:28:11.366Z,925.72
2018-11-23T07:29:08.703Z,925.74
2018-11-23T07:30:08.759Z,925.74
2018-11-23T07:31:08.787Z,925.77
2018-11-23T07:32:09.105Z,925.77
2018-11-23T07:33:08.874Z,925.76
2018-11-23T07:34:08.940Z,925.78
2018-11-23T07:35:09.016Z,925.70
2018-11-23T07:36:09.035Z,925.72
2018-11-23T07:37:09.078Z,925.66
2018-11-23T07:38:09.154Z,925.59
2018-11-23T07:39:09.171Z,925.61
2018-11-23T07:40:09.214Z,925.55
2018-11-23T07:41:09.255Z,925.59
2018-11-23T07:42:09.294Z,925.63
2018-11-23T07:43:09.374Z,925.64
2018-11-23T07:44:09.377Z,925.67
2018-11-23T07:45:09.426Z,925.69
2018-11-23T07:46:09.469Z,925.73
2018-11-23T07:47:09.774Z,925.72
2018-11-23T07:48:09.562Z,925.72
2018-11-23T07:49:09.609Z,925.73
2018-11-23T07:50:09.649Z,925.76
2018-11-23T07:51:09.713Z,925.81
2018-11-23T07:52:09.720Z,925.82
2018-11-23T07:53:09.762Z,925.81
2018-11-23T07:54:09.811Z,925.82
2018-11-23T07:55:09.854Z,925.87
2018-11-23T07:56:09.969Z,925.87
2018-11-23T07:57:10.218Z,925.90
2018-11-23T07:58:10.048Z,925.94
2018-11-23T07:59:10.038Z,926.01
2018-11-23T08:00:10.143Z,926.08
2018-11-23T08:01:10.120Z,926.07
2018-11-23T08:02:10.245Z,926.08
2018-11-23T08:03:10.227Z,926.09
2018-11-23T08:04:10.291Z,926.07
2018-11-23T08:05:10.314Z,926.08
2018-11-23T08:06:10.361Z,926.07
2018-11-23T08:07:10.709Z,926.05
2018-11-23T08:08:10.466Z,926.06
2018-11-23T08:09:10.526Z,926.06
2018-11-23T08:10:10.553Z,926.09
2018-11-23T08:11:10.588Z,926.04
2018-11-23T08:12:10.641Z,926.05
2018-11-23T08:13:10.724Z,926.01
2018-11-23T08:14:10.724Z,925.97
2018-11-23T08:15:10.773Z,926.01
2018-11-23T08:16:10.827Z,925.97
2018-11-23T08:17:11.147Z,926.00
2018-11-23T08:18:10.902Z,926.01
2018-11-23T08:19:10.948Z,926.04
2018-11-23T08:20:10.984Z,926.07
2018-11-23T08:21:11.056Z,926.10
2018-11-23T08:22:11.082Z,926.06
2018-11-23T08:23:11.138Z,926.06
2018-11-23T08:24:11.173Z,926.05
2018-11-23T08:25:11.235Z,926.10
2018-11-23T08:26:11.252Z,926.05
2018-11-23T08:27:11.303Z,926.03
2018-11-23T08:28:11.349Z,926.04
2018-11-23T08:29:11.387Z,926.02
2018-11-23T08:30:11.492Z,926.05
2018-11-23T08:31:11.485Z,926.11
2018-11-23T08:32:11.562Z,926.17
2018-11-23T08:33:11.600Z,926.21
2018-11-23T08:34:11.626Z,926.21
2018-11-23T08:35:11.663Z,926.27
2018-11-23T08:36:11.718Z,926.25
2018-11-23T08:37:11.775Z,926.24
2018-11-23T08:38:11.817Z,926.23
2018-11-23T08:39:11.902Z,926.23
2018-11-23T08:40:11.877Z,926.25
2018-11-23T08:41:11.930Z,926.22
2018-11-23T08:42:11.980Z,926.22
2018-11-23T08:43:12.015Z,926.24
2018-11-23T08:44:12.086Z,926.22
2018-11-23T08:45:12.176Z,926.21
2018-11-23T08:46:12.173Z,926.22
2018-11-23T08:47:12.224Z,926.23
2018-11-23T08:48:12.253Z,926.24
2018-11-23T08:49:12.308Z,926.24
2018-11-23T08:50:12.394Z,926.20
2018-11-23T08:51:12.381Z,926.19
2018-11-23T08:52:12.446Z,926.20
2018-11-23T08:53:12.538Z,926.17
2018-11-23T08:54:12.526Z,926.20
2018-11-23T08:55:12.559Z,926.13
2018-11-23T08:56:12.608Z,926.17
2018-11-23T08:57:12.697Z,926.15
2018-11-23T08:58:12.867Z,926.22
2018-11-23T08:59:12.756Z,926.18
2018-11-23T09:00:12.853Z,926.15
2018-11-23T09:01:12.849Z,926.20
2018-11-23T09:02:12.894Z,926.20
2018-11-23T09:03:12.939Z,926.21
2018-11-23T09:04:12.999Z,926.24
2018-11-23T09:05:13.031Z,926.21
2018-11-23T09:06:13.083Z,926.23
2018-11-23T09:07:13.132Z,926.23
2018-11-23T09:08:13.175Z,926.23
2018-11-23T09:09:13.211Z,926.23
2018-11-23T09:10:13.239Z,926.25
2018-11-23T09:11:13.309Z,926.23
2018-11-23T09:12:13.359Z,926.28
2018-11-23T09:13:13.432Z,926.31
2018-11-23T09:14:13.685Z,926.35
2018-11-23T09:15:13.461Z,926.37
2018-11-23T09:16:13.520Z,926.42
2018-11-23T09:17:13.565Z,926.48
2018-11-23T09:18:13.617Z,926.51
2018-11-23T09:19:13.686Z,926.57
2018-11-23T09:20:13.699Z,926.56
2018-11-23T09:21:13.769Z,926.60
2018-11-23T09:22:13.824Z,926.62
2018-11-23T09:23:13.842Z,926.63
2018-11-23T09:24:13.900Z,926.65
2018-11-23T09:25:13.930Z,926.60
2018-11-23T09:26:13.988Z,926.60
2018-11-23T09:27:14.038Z,926.60
2018-11-23T09:28:14.080Z,926.57
2018-11-23T09:29:14.116Z,926.63
2018-11-23T09:30:14.175Z,926.58
2018-11-23T09:31:14.282Z,926.56
2018-11-23T09:32:14.282Z,926.61
2018-11-23T09:33:14.322Z,926.60
2018-11-23T09:34:14.347Z,926.57
2018-11-23T09:35:14.457Z,926.59
2018-11-23T09:36:14.464Z,926.63
2018-11-23T09:37:14.572Z,926.58
2018-11-23T09:38:14.570Z,926.60
2018-11-23T09:39:14.613Z,926.59
2018-11-23T09:40:14.654Z,926.60
2018-11-23T09:41:14.953Z,926.59
2018-11-23T09:42:14.764Z,926.58
2018-11-23T09:43:14.810Z,926.58
2018-11-23T09:44:14.876Z,926.58
2018-11-23T09:45:14.939Z,926.64
2018-11-23T09:46:14.954Z,926.60
2018-11-23T09:47:15.008Z,926.62
2018-11-23T09:48:15.087Z,926.61
2018-11-23T09:49:15.236Z,926.64
2018-11-23T09:50:15.174Z,926.67
2018-11-23T09:51:15.227Z,926.65
2018-11-23T09:52:15.282Z,926.65
2018-11-23T09:53:15.341Z,926.67
2018-11-23T09:54:15.438Z,926.72
2018-11-23T09:55:15.437Z,926.71
2018-11-23T09:56:15.505Z,926.72
2018-11-23T09:57:15.556Z,926.71
2018-11-23T09:58:15.581Z,926.70
2018-11-23T09:59:15.658Z,926.69
2018-11-23T10:00:15.719Z,926.64
2018-11-23T10:01:15.789Z,926.66
2018-11-23T10:02:15.819Z,926.69
2018-11-23T10:03:15.889Z,926.65
2018-11-23T10:04:15.956Z,926.71
2018-11-23T10:05:16.035Z,926.66
2018-11-23T10:06:16.028Z,926.65
2018-11-23T10:07:16.071Z,926.62
2018-11-23T10:08:16.145Z,926.61
2018-11-23T10:09:16.185Z,926.58
2018-11-23T10:10:16.242Z,926.66
2018-11-23T10:11:16.293Z,926.64
2018-11-23T10:12:16.363Z,926.66
2018-11-23T10:13:16.418Z,926.62
2018-11-23T10:14:16.474Z,926.65
2018-11-23T10:15:16.517Z,926.62
2018-11-23T10:16:16.571Z,926.63
2018-11-23T10:17:16.634Z,926.65
2018-11-23T10:18:16.675Z,926.65
2018-11-23T10:19:16.743Z,926.63
2018-11-23T10:20:16.795Z,926.60
2018-11-23T10:21:16.861Z,926.67
2018-11-23T10:22:16.891Z,926.66
2018-11-23T10:23:16.939Z,926.59
2018-11-23T10:24:17.009Z,926.61
2018-11-23T10:25:17.055Z,926.63
2018-11-23T10:26:17.130Z,926.59
2018-11-23T10:27:17.179Z,926.60
2018-11-23T10:28:17.239Z,926.59
2018-11-23T10:29:17.279Z,926.60
2018-11-23T10:30:17.333Z,926.61
2018-11-23T10:31:17.413Z,926.54
2018-11-23T10:32:17.460Z,926.63
2018-11-23T10:33:17.518Z,926.62
2018-11-23T10:34:17.587Z,926.64
2018-11-23T10:35:17.632Z,926.64
2018-11-23T10:36:17.691Z,926.64
2018-11-23T10:37:17.728Z,926.59
2018-11-23T10:38:17.770Z,926.60
2018-11-23T10:39:17.842Z,926.63
2018-11-23T10:40:17.940Z,926.57
2018-11-23T10:41:17.959Z,926.53
2018-11-23T10:42:18.008Z,926.53
2018-11-23T10:43:18.116Z,926.52
2018-11-23T10:44:18.118Z,926.49
2018-11-23T10:45:18.182Z,926.52
2018-11-23T10:46:18.243Z,926.47
2018-11-23T10:47:18.323Z,926.48
2018-11-23T10:48:18.342Z,926.52
2018-11-23T10:49:18.418Z,926.48
2018-11-23T10:50:18.677Z,926.51
2018-11-23T10:51:18.536Z,926.49
2018-11-23T10:52:18.599Z,926.46
2018-11-23T10:53:18.671Z,926.52
2018-11-23T10:54:18.714Z,926.53
2018-11-23T10:55:18.783Z,926.55
2018-11-23T10:56:18.812Z,926.52
2018-11-23T10:57:18.876Z,926.58
2018-11-23T10:58:18.927Z,926.67
2018-11-23T10:59:18.994Z,926.62
2018-11-23T11:00:19.066Z,926.64
2018-11-23T11:01:19.115Z,926.65
2018-11-23T11:02:19.200Z,926.66
2018-11-23T11:03:19.248Z,926.61
2018-11-23T11:04:19.292Z,926.61
2018-11-23T11:05:19.342Z,926.63
2018-11-23T11:06:19.409Z,926.64
2018-11-23T11:07:19.471Z,926.65
2018-11-23T11:08:19.502Z,926.64
2018-11-23T11:09:19.572Z,926.67
2018-11-23T11:10:19.689Z,926.70
2018-11-23T11:11:19.708Z,926.74
2018-11-23T11:12:19.764Z,926.63
2018-11-23T11:13:19.863Z,926.70
2018-11-23T11:14:19.855Z,926.66
2018-11-23T11:15:19.917Z,926.75
2018-11-23T11:16:19.981Z,926.61
2018-11-23T11:17:20.051Z,926.64
2018-11-23T11:18:20.130Z,926.62
2018-11-23T11:19:20.220Z,926.60
2018-11-23T11:20:20.223Z,926.62
2018-11-23T11:21:20.296Z,926.60
2018-11-23T11:22:20.349Z,926.64
2018-11-23T11:23:20.403Z,926.60
2018-11-23T11:24:20.465Z,926.67
2018-11-23T11:25:20.528Z,926.62
2018-11-23T11:26:20.589Z,926.59
2018-11-23T11:27:20.656Z,926.69
2018-11-23T11:28:20.683Z,926.69
2018-11-23T11:29:20.753Z,926.70
2018-11-23T11:30:20.832Z,926.70
2018-11-23T11:31:20.870Z,926.69
2018-11-23T11:32:20.944Z,926.70
2018-11-23T11:33:20.977Z,926.71
2018-11-23T11:34:21.080Z,926.75
2018-11-23T11:35:21.157Z,926.81
2018-11-23T11:36:21.170Z,926.82
2018-11-23T11:37:21.237Z,926.86
2018-11-23T11:38:21.293Z,926.83
2018-11-23T11:39:21.332Z,926.84
2018-11-23T11:40:21.405Z,926.79
2018-11-23T11:41:21.461Z,926.74
2018-11-23T11:42:21.511Z,926.71
2018-11-23T11:43:21.577Z,926.64
2018-11-23T11:44:21.645Z,926.71
2018-11-23T11:45:21.725Z,926.71
2018-11-23T11:46:21.771Z,926.66
2018-11-23T11:47:21.846Z,926.73
2018-11-23T11:48:21.873Z,926.69
2018-11-23T11:49:21.932Z,926.65
2018-11-23T11:50:21.984Z,926.73
2018-11-23T11:51:22.107Z,926.71
2018-11-23T11:52:22.119Z,926.62
2018-11-23T11:53:22.187Z,926.69
2018-11-23T11:54:22.252Z,926.67
2018-11-23T11:55:22.301Z,926.62
2018-11-23T11:56:22.375Z,926.57
2018-11-23T11:57:22.428Z,926.63
2018-11-23T11:58:22.474Z,926.61
2018-11-23T11:59:22.543Z,926.65
2018-11-23T12:00:22.596Z,926.64
2018-11-23T12:01:22.671Z,926.62
2018-11-23T12:02:22.704Z,926.63
2018-11-23T12:03:22.758Z,926.63
2018-11-23T12:04:23.088Z,926.65
2018-11-23T12:05:22.898Z,926.63
2018-11-23T12:06:22.960Z,926.68
2018-11-23T12:07:23.022Z,926.68
2018-11-23T12:08:23.070Z,926.65
2018-11-23T12:09:23.138Z,926.68
2018-11-23T12:10:23.241Z,926.74
2018-11-23T12:11:23.249Z,926.73
2018-11-23T12:12:23.317Z,926.68
2018-11-23T12:13:23.410Z,926.69
2018-11-23T12:14:23.458Z,926.74
2018-11-23T12:15:23.500Z,926.73
2018-11-23T12:16:24.145Z,926.67
2018-11-23T12:17:23.636Z,926.70
2018-11-23T12:18:23.705Z,926.72
2018-11-23T12:19:23.767Z,926.61
2018-11-23T12:20:23.821Z,926.57
2018-11-23T12:21:23.870Z,926.57
2018-11-23T12:22:23.930Z,926.58
2018-11-23T12:24:24.061Z,926.60
2018-11-23T12:25:24.129Z,926.58
2018-11-23T12:26:24.182Z,926.58
2018-11-23T12:27:24.235Z,926.57
2018-11-23T12:28:24.295Z,926.60
2018-11-23T12:29:24.376Z,926.60
2018-11-23T12:30:24.463Z,926.61